Time;durP1;ratioP1;P1;durP2;ratioP2;P2;SDS_P1;SDS_P2;PMS_P1;PMS_P2;Temp;Humidity;BMP_temperature;BMP_pressure;BME280_temperature;BME280_humidity;BME280_pressure;Samples;Min_cycle;Max_cycle;Signal;HPM_P1;HPM_P2
2022/03/17 00:02:08;;;;;;;9.03;3.00;;;;;;;14.91;53.38;100882.50;5024930;28;20084;-70
2022/03/17 00:04:35;;;;;;;17.17;5.13;;;;;;;14.81;53.38;100853.69;5029814;28;20057;-69
2022/03/17 00:07:02;;;;;;;30.33;6.73;;;;;;;14.88;53.29;100871.00;5026197;28;20137;-70
2022/03/17 00:09:29;;;;;;;10.30;4.40;;;;;;;14.75;53.52;100855.72;5024853;28;20512;-69
2022/03/17 00:11:56;;;;;;;18.63;4.23;;;;;;;14.71;53.53;100837.78;5025937;28;20127;-69
2022/03/17 00:14:23;;;;;;;7.83;3.47;;;;;;;14.78;53.13;100849.50;5026684;28;20125;-69
2022/03/17 00:16:50;;;;;;;12.00;2.63;;;;;;;14.93;53.09;100866.13;5025669;28;20145;-69
2022/03/17 00:19:17;;;;;;;8.63;2.60;;;;;;;14.91;53.03;100871.25;5020848;28;20057;-70
2022/03/17 00:21:44;;;;;;;18.70;3.33;;;;;;;14.85;53.01;100849.97;5029419;28;20077;-69
2022/03/17 00:24:11;;;;;;;13.63;2.93;;;;;;;14.85;53.24;100847.16;5026930;28;20133;-69
2022/03/17 00:26:38;;;;;;;5.53;2.10;;;;;;;14.74;53.30;100825.94;5027031;28;20315;-70
2022/03/17 00:29:08;;;;;;;11.40;2.63;;;;;;;14.97;53.09;100871.16;5027247;28;20081;-68
2022/03/17 00:31:39;;;;;;;;;;;;;;;14.89;53.87;100864.25;5025005;28;20137;-68
2022/03/17 00:34:08;;;;;;;9.70;2.07;;;;;;;14.75;53.38;100827.59;5025401;28;20025;-68
2022/03/17 00:36:35;;;;;;;11.07;2.63;;;;;;;14.74;53.09;100823.13;5033924;28;20120;-68
2022/03/17 00:39:04;;;;;;;9.13;2.40;;;;;;;14.84;53.32;100842.66;5029395;28;20081;-68
2022/03/17 00:41:32;;;;;;;8.47;2.00;;;;;;;14.89;53.50;100861.44;5028301;28;20103;-68
2022/03/17 00:43:59;;;;;;;13.00;3.43;;;;;;;14.61;53.25;100843.53;5030859;28;20111;-67
2022/03/17 00:46:26;;;;;;;10.00;3.20;;;;;;;14.63;53.31;100832.81;5032818;28;20153;-68
2022/03/17 00:48:53;;;;;;;8.73;2.93;;;;;;;14.83;53.51;100862.63;5031522;28;20049;-70
2022/03/17 00:51:19;;;;;;;13.93;2.57;;;;;;;14.65;53.55;100850.22;5027326;28;20045;-69
2022/03/17 00:53:46;;;;;;;7.30;2.47;;;;;;;14.60;53.69;100847.50;5029310;28;20058;-70
2022/03/17 00:56:13;;;;;;;10.17;2.60;;;;;;;14.61;53.81;100843.53;5034019;28;20084;-69
2022/03/17 00:58:45;;;;;;;7.53;3.13;;;;;;;14.57;53.71;100834.88;5031937;28;20140;-69
2022/03/17 01:01:14;;;;;;;5.13;2.50;;;;;;;14.78;53.71;100857.94;5031637;28;20100;-68
2022/03/17 01:03:46;;;;;;;19.10;4.00;;;;;;;14.78;53.77;100859.91;5031522;28;20060;-68
2022/03/17 01:06:13;;;;;;;11.60;2.97;;;;;;;14.81;53.50;100860.13;5027416;28;20128;-68
2022/03/17 01:08:40;;;;;;;13.77;3.77;;;;;;;14.81;53.68;100865.75;5028125;28;20453;-69
2022/03/17 01:11:07;;;;;;;22.30;3.50;;;;;;;14.71;53.57;100856.63;5030082;28;20056;-68
2022/03/17 01:13:35;;;;;;;20.53;3.73;;;;;;;14.78;53.42;100855.13;5028012;28;20073;-70
2022/03/17 01:16:02;;;;;;;10.37;2.33;;;;;;;14.77;53.24;100859.06;5028620;28;20529;-69
2022/03/17 01:18:29;;;;;;;12.53;2.87;;;;;;;14.67;53.45;100860.03;5030419;28;20057;-69
2022/03/17 01:20:57;;;;;;;10.73;3.17;;;;;;;14.29;53.55;100807.63;5030972;28;20145;-69
2022/03/17 01:23:24;;;;;;;8.60;2.00;;;;;;;14.67;53.59;100864.81;5028642;28;20471;-68
2022/03/17 01:25:51;;;;;;;11.73;2.60;;;;;;;14.65;53.81;100855.84;5024114;28;20132;-69
2022/03/17 01:28:19;;;;;;;16.40;3.93;;;;;;;14.33;53.71;100798.34;5030685;28;20077;-68
2022/03/17 01:30:46;;;;;;;18.30;3.90;;;;;;;14.82;53.58;100878.66;5032355;28;20111;-69
2022/03/17 01:33:13;;;;;;;14.57;3.77;;;;;;;14.84;53.72;100878.38;5028049;28;20046;-69
2022/03/17 01:35:40;;;;;;;8.83;2.77;;;;;;;14.62;53.72;100840.41;5024708;28;20050;-69
2022/03/17 01:38:07;;;;;;;20.30;4.13;;;;;;;14.83;53.69;100869.09;5027946;28;20046;-69
2022/03/17 01:40:33;;;;;;;13.33;2.77;;;;;;;14.76;53.84;100860.19;5025276;28;20085;-69
2022/03/17 01:43:01;;;;;;;18.37;4.37;;;;;;;14.81;53.77;100860.13;5031330;28;20562;-69
2022/03/17 01:45:28;;;;;;;10.90;3.37;;;;;;;14.74;53.89;100865.28;5028922;28;20081;-68
2022/03/17 01:47:55;;;;;;;8.77;2.20;;;;;;;14.78;53.67;100871.16;5024270;28;20052;-69
2022/03/17 01:50:23;;;;;;;11.10;2.93;;;;;;;14.56;53.62;100852.00;5033942;28;20498;-68
2022/03/17 01:52:50;;;;;;;11.20;2.80;;;;;;;14.54;54.01;100857.94;5027452;28;20139;-68
2022/03/17 01:55:18;;;;;;;18.17;4.33;;;;;;;14.63;53.94;100869.34;5043043;28;20123;-67
2022/03/17 01:57:46;;;;;;;8.60;2.50;;;;;;;14.61;53.89;100875.28;5025742;28;20038;-68
2022/03/17 02:00:17;;;;;;;8.83;2.93;;;;;;;14.59;53.97;100869.13;5025920;28;20052;-70
2022/03/17 02:02:49;;;;;;;17.30;2.77;;;;;;;14.28;54.02;100817.22;5029009;28;20073;-69
2022/03/17 02:05:18;;;;;;;10.60;2.47;;;;;;;14.48;53.84;100847.03;5026441;28;20515;-69
2022/03/17 02:07:52;;;;;;;13.23;3.50;;;;;;;14.62;53.90;100876.13;5027518;28;20060;-70
2022/03/17 02:10:21;;;;;;;10.43;2.53;;;;;;;13.68;53.90;100739.00;5026559;28;20057;-70
2022/03/17 02:15:34;;;;;;;15.60;2.70;;;;;;;14.56;53.91;100877.31;5029301;28;20512;-70
2022/03/17 02:18:02;;;;;;;22.70;2.87;;;;;;;14.58;54.00;100869.44;5028850;28;20137;-68
2022/03/17 02:20:29;;;;;;;17.10;3.23;;;;;;;14.55;53.87;100878.47;5026892;28;20042;-71
2022/03/17 02:25:33;;;;;;;7.30;1.80;;;;;;;14.38;53.94;100857.25;5028648;28;20140;-70
2022/03/17 02:25:47;;;;;;;8.20;2.10;;;;;;;14.41;54.04;100862.28;5028279;28;20360;-70
2022/03/17 02:28:15;;;;;;;14.43;3.57;;;;;;;14.49;53.87;100872.00;5021943;28;20053;-69
2022/03/17 02:30:42;;;;;;;20.27;3.87;;;;;;;14.49;53.95;100879.63;5027368;28;20355;-69
2022/03/17 02:33:13;;;;;;;17.57;2.67;;;;;;;14.39;53.93;100870.19;5033285;28;20438;-69
2022/03/17 02:35:41;;;;;;;18.27;3.27;;;;;;;14.26;54.06;100864.44;5029409;28;20502;-69
2022/03/17 02:38:09;;;;;;;15.27;2.37;;;;;;;14.36;54.02;100884.84;5028018;28;20128;-70
2022/03/17 02:40:36;;;;;;;11.33;2.90;;;;;;;14.44;53.76;100877.72;5027733;28;20148;-69
2022/03/17 02:43:04;;;;;;;10.30;2.87;;;;;;;14.34;53.88;100867.41;5030176;28;20077;-69
2022/03/17 02:45:33;;;;;;;9.63;2.97;;;;;;;14.40;53.60;100865.41;5029873;28;20912;-69
2022/03/17 02:48:01;;;;;;;10.73;2.63;;;;;;;14.25;53.64;100846.72;5025925;28;20045;-69
2022/03/17 02:50:28;;;;;;;10.33;3.03;;;;;;;14.43;53.65;100874.06;5027202;28;20485;-69
2022/03/17 02:52:55;;;;;;;12.53;2.30;;;;;;;14.43;53.70;100876.88;5028477;28;20124;-69
2022/03/17 02:55:23;;;;;;;9.97;2.23;;;;;;;14.25;53.56;100852.34;5029664;28;20132;-68
2022/03/17 02:57:50;;;;;;;6.70;2.07;;;;;;;14.35;53.58;100860.66;5030564;28;20416;-69
2022/03/17 03:00:17;;;;;;;8.33;1.60;;;;;;;14.41;53.60;100869.88;5026016;28;20144;-69
2022/03/17 03:02:44;;;;;;;10.73;2.33;;;;;;;14.18;53.81;100858.31;5025080;28;20059;-70
2022/03/17 03:05:17;;;;;;;9.33;2.10;;;;;;;14.22;53.70;100847.31;5031352;28;20137;-69
2022/03/17 03:07:44;;;;;;;20.63;3.13;;;;;;;14.38;53.73;100871.31;5026454;28;20045;-69
2022/03/17 03:10:11;;;;;;;10.27;2.07;;;;;;;14.39;53.64;100873.00;5021249;28;20049;-70
2022/03/17 03:12:38;;;;;;;8.83;2.27;;;;;;;14.27;53.69;100855.72;5017114;28;20050;-68
2022/03/17 03:15:06;;;;;;;11.40;3.30;;;;;;;14.31;53.58;100862.41;5027343;28;20692;-69
2022/03/17 03:17:33;;;;;;;9.73;2.40;;;;;;;14.13;53.65;100832.28;5024202;28;20052;-69
2022/03/17 03:20:00;;;;;;;10.53;2.47;;;;;;;14.32;53.47;100878.09;5020077;28;20072;-69
2022/03/17 03:22:29;;;;;;;14.90;2.13;;;;;;;14.15;53.61;100844.03;5023360;28;20136;-68
2022/03/17 03:24:57;;;;;;;9.73;1.65;;;;;;;14.27;53.53;100861.31;5024870;28;20061;-66
2022/03/17 03:27:27;;;;;;;9.23;2.63;;;;;;;13.91;53.68;100802.75;5019342;28;20056;-69
2022/03/17 03:29:55;;;;;;;11.57;3.17;;;;;;;14.28;53.61;100867.78;5026126;28;20073;-68
2022/03/17 03:32:23;;;;;;;10.63;2.43;;;;;;;14.32;53.79;100875.31;5021306;28;20136;-69
2022/03/17 03:34:50;;;;;;;21.97;2.73;;;;;;;14.23;53.63;100861.09;5023628;28;20084;-69
2022/03/17 03:37:23;;;;;;;23.33;2.80;;;;;;;14.28;53.84;100879.84;5021902;28;20137;-70
2022/03/17 03:39:54;;;;;;;12.93;2.33;;;;;;;14.22;53.97;100869.78;5024452;28;20072;-69
2022/03/17 03:42:23;;;;;;;12.37;1.80;;;;;;;14.29;53.79;100881.53;5018298;28;20057;-70
2022/03/17 03:44:51;;;;;;;20.53;1.90;;;;;;;14.28;53.72;100882.66;5017788;28;20049;-70
2022/03/17 03:47:18;;;;;;;20.13;2.50;;;;;;;14.33;53.77;100881.78;5023765;28;20080;-69
2022/03/17 03:49:46;;;;;;;6.50;2.20;;;;;;;14.33;53.82;100887.41;5024892;28;20057;-69
2022/03/17 03:52:14;;;;;;;10.87;2.50;;;;;;;14.37;53.72;100892.13;5025048;28;20132;-69
2022/03/17 03:54:41;;;;;;;11.57;2.00;;;;;;;14.40;53.60;100888.72;5025852;28;20076;-70
2022/03/17 03:57:10;;;;;;;12.77;2.80;;;;;;;14.33;53.58;100877.00;5023088;28;20046;-69
2022/03/17 03:59:38;;;;;;;9.33;2.47;;;;;;;14.36;53.66;100882.03;5026585;28;20133;-68
2022/03/17 04:02:10;;;;;;;11.77;2.67;;;;;;;14.33;53.61;100871.38;5029950;28;20549;-69
2022/03/17 04:04:42;;;;;;;9.27;2.33;;;;;;;14.43;53.63;100882.50;5029535;28;20111;-69
2022/03/17 04:07:11;;;;;;;10.03;1.87;;;;;;;14.29;53.62;100875.94;5028053;28;20045;-69
2022/03/17 04:09:42;;;;;;;6.67;2.17;;;;;;;14.29;53.68;100866.63;5024295;28;20077;-68
2022/03/17 04:12:11;;;;;;;12.00;1.87;;;;;;;14.41;53.66;100887.56;5035582;28;20099;-69
2022/03/17 04:14:38;;;;;;;13.60;3.57;;;;;;;14.39;53.54;100889.84;5029275;28;20096;-68
2022/03/17 04:17:05;;;;;;;20.33;2.90;;;;;;;14.39;53.64;100875.81;5030756;28;21112;-69
2022/03/17 04:19:32;;;;;;;12.10;2.43;;;;;;;13.89;53.57;100805.00;5028675;28;20123;-68
2022/03/17 04:21:59;;;;;;;11.00;2.80;;;;;;;14.25;53.71;100872.00;5032030;28;20132;-69
2022/03/17 04:24:27;;;;;;;18.50;2.90;;;;;;;14.37;53.50;100894.09;5029063;28;20077;-68
2022/03/17 04:26:53;;;;;;;9.20;3.00;;;;;;;14.23;53.70;100877.94;5033452;28;20076;-68
2022/03/17 04:29:20;;;;;;;16.90;3.20;;;;;;;14.32;53.64;100896.94;5030324;28;20133;-69
2022/03/17 04:31:47;;;;;;;18.10;3.57;;;;;;;14.27;53.82;100895.03;5030982;28;20144;-69
2022/03/17 04:34:14;;;;;;;11.07;2.30;;;;;;;14.26;53.86;100900.97;5031911;28;20049;-69
2022/03/17 04:36:41;;;;;;;14.07;2.50;;;;;;;14.29;53.76;100898.41;5033090;28;20140;-70
2022/03/17 04:39:11;;;;;;;14.00;2.43;;;;;;;14.31;53.98;100912.97;5028316;28;20049;-69
2022/03/17 04:41:39;;;;;;;11.45;2.17;;;;;;;14.29;53.88;100901.22;5032269;28;20100;-70
2022/03/17 04:44:08;;;;;;;15.70;3.90;;;;;;;14.27;53.87;100911.88;5030119;28;20050;-68
2022/03/17 04:46:36;;;;;;;11.70;2.83;;;;;;;14.01;54.13;100865.53;5029799;28;20148;-68
2022/03/17 04:49:03;;;;;;;14.90;2.23;;;;;;;14.27;53.98;100917.50;5030657;28;20061;-68
2022/03/17 04:51:31;;;;;;;14.63;2.80;;;;;;;14.21;54.04;100904.63;5026894;28;20092;-69
2022/03/17 04:53:58;;;;;;;17.43;3.30;;;;;;;13.88;54.04;100864.25;5026410;28;20049;-68
2022/03/17 04:56:26;;;;;;;12.50;2.77;;;;;;;13.99;54.18;100894.75;5029667;28;20045;-68
2022/03/17 04:58:53;;;;;;;11.10;2.30;;;;;;;14.02;54.15;100907.38;5031214;28;20049;-68
2022/03/17 05:01:19;;;;;;;13.60;2.50;;;;;;;14.19;54.18;100935.03;5025624;28;20073;-69
2022/03/17 05:03:47;;;;;;;10.70;2.87;;;;;;;14.20;54.21;100939.50;5031260;28;20212;-68
2022/03/17 05:06:15;;;;;;;23.87;6.87;;;;;;;14.21;54.25;100936.38;5031002;28;20042;-67
2022/03/17 05:08:42;;;;;;;13.97;2.80;;;;;;;14.18;54.14;100941.75;5031654;28;20133;-66
2022/03/17 05:11:11;;;;;;;15.30;3.20;;;;;;;13.95;54.11;100904.91;5027125;28;20148;-69
2022/03/17 05:13:39;;;;;;;14.40;2.53;;;;;;;14.02;54.21;100927.03;5028544;28;20067;-68
2022/03/17 05:16:07;;;;;;;19.90;2.83;;;;;;;14.03;54.07;100931.50;5029497;28;20058;-68
2022/03/17 05:18:35;;;;;;;18.40;4.67;;;;;;;13.90;53.85;100902.13;5021523;28;20509;-69
2022/03/17 05:21:03;;;;;;;14.03;2.40;;;;;;;14.16;54.14;100950.47;5030148;28;20103;-68
2022/03/17 05:23:31;;;;;;;12.90;3.73;;;;;;;14.16;54.26;100961.72;5026699;28;20050;-68
2022/03/17 05:25:58;;;;;;;13.30;2.67;;;;;;;14.02;54.14;100948.63;5025884;28;20057;-70
2022/03/17 05:28:26;;;;;;;10.80;2.30;;;;;;;13.98;54.23;100943.63;5029053;28;20120;-69
2022/03/17 05:30:53;;;;;;;11.97;2.33;;;;;;;14.17;54.11;100968.16;5026790;28;20049;-68
2022/03/17 05:33:21;;;;;;;19.50;3.20;;;;;;;14.19;54.05;100969.56;5024630;28;20092;-68
2022/03/17 05:35:48;;;;;;;12.53;3.33;;;;;;;13.86;54.08;100917.88;5031561;28;20141;-69
2022/03/17 05:38:14;;;;;;;13.87;3.03;;;;;;;14.06;54.53;100963.78;5023935;28;20170;-69
2022/03/17 05:40:41;;;;;;;17.77;3.40;;;;;;;14.19;54.28;100982.75;5030412;28;20092;-69
2022/03/17 05:43:10;;;;;;;16.53;2.87;;;;;;;14.18;54.22;100979.09;5031461;28;20132;-69
2022/03/17 05:45:38;;;;;;;9.70;2.27;;;;;;;14.21;54.16;100983.28;5029023;28;20120;-68
2022/03/17 05:48:06;;;;;;;16.93;4.00;;;;;;;14.20;54.21;100979.66;5027102;28;20630;-68
2022/03/17 05:50:37;;;;;;;13.83;2.80;;;;;;;14.20;54.31;100981.63;5023334;28;20111;-68
2022/03/17 05:53:06;;;;;;;17.33;2.87;;;;;;;14.10;54.11;100979.75;5025615;28;20045;-68
2022/03/17 05:55:33;;;;;;;10.03;2.67;;;;;;;14.09;53.97;100971.63;5028863;28;20140;-68
2022/03/17 05:58:01;;;;;;;16.93;3.37;;;;;;;14.29;53.99;100993.91;5025546;28;20087;-70
2022/03/17 06:00:29;;;;;;;18.10;3.27;;;;;;;14.12;54.01;100968.19;5023301;28;20483;-69
2022/03/17 06:02:58;;;;;;;10.50;3.17;;;;;;;14.28;54.06;101005.44;5028168;28;20085;-68
2022/03/17 06:05:26;;;;;;;12.73;2.70;;;;;;;14.20;53.82;100992.88;5029709;28;20045;-68
2022/03/17 06:07:54;;;;;;;18.07;3.10;;;;;;;14.24;54.01;101005.19;5025260;28;20079;-69
2022/03/17 06:10:32;;;;;;;18.07;3.30;;;;;;;14.29;54.01;101009.91;5024758;28;20077;-68
2022/03/17 06:13:02;;;;;;;8.73;2.90;;;;;;;14.29;54.09;101013.56;5003468;28;20133;-69
2022/03/17 06:15:30;;;;;;;18.05;3.58;;;;;;;14.17;54.07;100987.81;5024993;28;20065;-69
2022/03/17 06:17:59;;;;;;;24.17;3.93;;;;;;;14.34;53.92;101013.50;5026850;28;20103;-69
2022/03/17 06:20:28;;;;;;;11.33;3.67;;;;;;;14.00;54.05;100954.56;5026804;28;20049;-68
2022/03/17 06:22:58;;;;;;;15.10;3.43;;;;;;;14.38;53.91;101020.22;5011508;28;20088;-68
2022/03/17 06:25:27;;;;;;;10.05;2.75;;;;;;;14.34;53.78;101024.75;5030736;28;20054;-69
2022/03/17 06:27:54;;;;;;;23.20;4.07;;;;;;;14.27;53.88;101000.94;5028653;28;20156;-68
2022/03/17 06:30:24;;;;;;;24.17;3.30;;;;;;;14.40;53.92;101029.19;5027227;28;20128;-68
2022/03/17 06:32:51;;;;;;;17.15;3.58;;;;;;;14.25;53.84;101014.44;5031070;28;20390;-68
2022/03/17 06:35:21;;;;;;;15.03;2.97;;;;;;;14.28;53.90;101023.13;5025477;28;20080;-68
2022/03/17 06:37:52;;;;;;;21.07;3.20;;;;;;;14.22;54.05;101022.34;5028783;28;20132;-68
2022/03/17 06:40:22;;;;;;;12.03;3.30;;;;;;;14.25;54.10;101037.75;5026085;28;20394;-66
2022/03/17 06:42:50;;;;;;;14.37;3.63;;;;;;;13.95;54.05;101005.16;5029930;28;20089;-68
2022/03/17 06:45:17;;;;;;;17.60;3.47;;;;;;;14.22;54.21;101043.94;5025354;28;20477;-68
2022/03/17 06:47:44;;;;;;;24.50;3.83;;;;;;;14.20;54.25;101052.69;5026745;28;20091;-67
2022/03/17 06:50:12;;;;;;;17.53;3.47;;;;;;;14.07;54.18;101035.66;5027545;28;20110;-68
2022/03/17 06:52:39;;;;;;;17.60;4.20;;;;;;;14.14;54.38;101053.00;5029395;28;20469;-68
2022/03/17 06:55:08;;;;;;;9.60;3.03;;;;;;;14.05;54.42;101037.91;5025398;28;20084;-68
2022/03/17 06:57:34;;;;;;;17.80;3.40;;;;;;;14.05;54.51;101052.81;5025561;28;20463;-68
2022/03/17 07:00:20;;;;;;;23.07;3.60;;;;;;;14.03;54.53;101065.47;5025491;28;20128;-70
2022/03/17 07:02:47;;;;;;;19.07;2.77;;;;;;;13.95;54.71;101059.34;5020515;28;20097;-68
2022/03/17 07:05:15;;;;;;;19.03;4.53;;;;;;;13.84;54.59;101038.03;5024473;28;20049;-68
2022/03/17 07:07:43;;;;;;;22.63;4.40;;;;;;;13.94;54.66;101068.03;5036263;28;20080;-68
2022/03/17 07:10:11;;;;;;;18.83;4.60;;;;;;;13.86;54.52;101052.63;5024378;28;20053;-67
2022/03/17 07:12:40;;;;;;;20.20;4.33;;;;;;;13.83;54.59;101055.19;5025928;28;20512;-69
2022/03/17 07:15:07;;;;;;;25.93;5.03;;;;;;;13.88;54.58;101066.38;5024928;28;20515;-68
2022/03/17 07:17:41;;;;;;;31.60;5.90;;;;;;;14.01;54.53;101087.34;5025106;28;20555;-69
2022/03/17 07:20:14;;;;;;;23.17;4.90;;;;;;;13.85;54.45;101072.59;5025161;28;20115;-67
2022/03/17 07:22:46;;;;;;;16.30;4.23;;;;;;;13.90;54.71;101090.22;5029978;28;20093;-68
2022/03/17 07:25:20;;;;;;;29.17;5.97;;;;;;;13.89;54.58;101080.13;5027580;28;20783;-68
2022/03/17 07:27:48;;;;;;;20.87;3.83;;;;;;;14.05;54.60;101096.88;5023907;28;20129;-68
2022/03/17 07:30:22;;;;;;;19.33;5.30;;;;;;;14.09;54.51;101109.22;5029398;28;20488;-68
2022/03/17 07:32:55;;;;;;;20.97;4.23;;;;;;;14.02;54.51;101089.91;5030579;28;20051;-69
2022/03/17 07:35:26;;;;;;;22.40;5.33;;;;;;;13.75;54.45;101067.88;5028072;28;20473;-70
2022/03/17 07:37:56;;;;;;;25.20;5.83;;;;;;;14.08;54.58;101118.75;5024902;28;20144;-69
2022/03/17 07:40:23;;;;;;;;;;;;;;;14.02;54.70;101125.53;5032677;28;20091;-67
2022/03/17 07:42:50;;;;;;;27.70;5.43;;;;;;;13.98;54.62;101114.91;5030877;28;19921;-69
2022/03/17 07:45:17;;;;;;;25.57;4.83;;;;;;;14.07;54.57;101137.59;5023987;28;20132;-69
2022/03/17 07:47:48;;;;;;;21.90;4.63;;;;;;;14.11;54.58;101132.22;5029470;28;20096;-69
2022/03/17 07:50:16;;;;;;;30.23;3.83;;;;;;;14.15;54.67;101133.31;5026935;28;20077;-68
2022/03/17 07:52:43;;;;;;;20.70;4.67;;;;;;;14.16;54.52;101135.03;5025479;28;20085;-68
2022/03/17 07:55:11;;;;;;;19.90;4.63;;;;;;;14.01;54.37;101107.84;5021091;28;20136;-68
2022/03/17 07:57:39;;;;;;;18.83;4.90;;;;;;;14.21;54.69;101143.41;5030122;28;20128;-68
2022/03/17 08:00:11;;;;;;;19.50;4.95;;;;;;;14.24;54.50;101137.22;5029532;28;20133;-67
2022/03/17 08:02:40;;;;;;;33.13;4.00;;;;;;;14.26;54.49;101142.56;5031919;28;20053;-69
2022/03/17 08:05:13;;;;;;;24.02;5.30;;;;;;;14.18;54.38;101141.16;5024402;28;20041;-68
2022/03/17 08:07:41;;;;;;;17.93;4.90;;;;;;;14.31;54.46;101148.97;5016638;28;20476;-68
2022/03/17 08:10:09;;;;;;;19.83;5.03;;;;;;;14.34;54.39;101156.81;5027622;28;20115;-68
2022/03/17 08:12:36;;;;;;;20.80;4.53;;;;;;;14.29;54.34;101150.38;5032256;28;20088;-68
2022/03/17 08:15:05;;;;;;;30.23;5.47;;;;;;;14.35;54.06;101149.22;5022730;28;20053;-68
2022/03/17 08:17:33;;;;;;;22.80;5.83;;;;;;;14.40;54.33;101152.00;5022250;28;20443;-69
2022/03/17 08:20:00;;;;;;;19.90;5.33;;;;;;;14.48;54.34;101162.59;5032257;28;20452;-69
2022/03/17 08:22:27;;;;;;;27.93;5.80;;;;;;;14.51;54.03;101164.88;5031897;28;20099;-70
2022/03/17 08:24:53;;;;;;;21.70;4.53;;;;;;;14.48;54.33;101162.59;5032266;28;20099;-69
2022/03/17 08:27:20;;;;;;;32.87;5.67;;;;;;;14.49;54.16;101164.28;5026519;28;20129;-68
2022/03/17 08:29:48;;;;;;;29.30;5.77;;;;;;;14.50;54.34;101162.34;5024266;28;20049;-69
2022/03/17 08:32:15;;;;;;;35.27;5.93;;;;;;;14.42;54.12;101155.34;5029110;28;20144;-68
2022/03/17 08:34:42;;;;;;;30.90;6.20;;;;;;;14.57;54.17;101180.56;5024891;28;20081;-68
2022/03/17 08:37:09;;;;;;;15.10;4.43;;;;;;;14.63;54.15;101181.34;5030964;28;20451;-68
2022/03/17 08:39:36;;;;;;;25.33;5.97;;;;;;;14.61;54.17;101176.03;5031960;28;20540;-69
2022/03/17 08:42:03;;;;;;;29.43;6.07;;;;;;;14.65;54.15;101179.09;5012777;28;20141;-69
2022/03/17 08:44:30;;;;;;;15.90;5.00;;;;;;;14.70;54.13;101190.31;5025077;28;20045;-69
2022/03/17 08:49:43;;;;;;;27.03;5.47;;;;;;;14.71;53.99;101174.28;5027565;28;20045;-69
2022/03/17 08:52:10;;;;;;;32.53;7.07;;;;;;;14.76;53.75;101179.84;5024665;28;20054;-68
2022/03/17 08:54:38;;;;;;;31.00;6.80;;;;;;;14.78;53.79;101181.25;5019466;28;20418;-68
2022/03/17 08:57:05;;;;;;;22.60;5.60;;;;;;;14.83;54.06;101174.72;5023036;28;20140;-69
2022/03/17 08:59:36;;;;;;;15.17;5.27;;;;;;;15.01;53.71;101193.72;5024803;28;20050;-67
2022/03/17 09:02:10;;;;;;;30.00;5.40;;;;;;;14.97;53.82;101194.59;5021671;28;20088;-68
2022/03/17 09:04:38;;;;;;;24.30;5.00;;;;;;;15.09;54.02;101209.13;5024709;28;20132;-68
2022/03/17 09:07:05;;;;;;;25.53;5.30;;;;;;;15.05;53.83;101196.78;5028616;28;20117;-68
2022/03/17 09:09:34;;;;;;;19.47;4.87;;;;;;;15.07;53.59;101177.63;5023660;28;20136;-69
2022/03/17 09:12:05;;;;;;;24.57;5.43;;;;;;;15.06;53.60;101173.13;5023595;28;20137;-69
2022/03/17 09:14:37;;;;;;;28.57;5.90;;;;;;;15.23;53.62;101198.84;5023282;28;20074;-68
2022/03/17 09:17:04;;;;;;;20.40;5.23;;;;;;;15.25;53.72;101202.22;5025120;28;20392;-69
2022/03/17 09:19:32;;;;;;;14.13;4.23;;;;;;;15.36;53.69;101215.03;5025495;28;20053;-68
2022/03/17 09:21:59;;;;;;;23.70;6.20;;;;;;;15.41;53.84;101217.78;5020021;28;20128;-69
2022/03/17 09:24:30;;;;;;;16.33;5.03;;;;;;;15.41;53.67;101223.41;5023558;28;20227;-69
2022/03/17 09:26:59;;;;;;;30.53;6.23;;;;;;;15.38;53.54;101207.16;5031780;28;20073;-68
2022/03/17 09:29:28;;;;;;;20.48;5.30;;;;;;;15.16;53.70;101159.81;5026250;28;20120;-69
2022/03/17 09:31:58;;;;;;;29.50;6.03;;;;;;;15.48;53.51;101210.97;5024965;28;20053;-68
2022/03/17 09:34:25;;;;;;;25.48;4.97;;;;;;;15.57;53.50;101226.09;5028138;28;20064;-67
2022/03/17 09:36:52;;;;;;;25.97;6.13;;;;;;;15.58;53.32;101216.50;5025530;28;20497;-68
2022/03/17 09:42:05;;;;;;;21.50;5.17;;;;;;;15.80;53.23;101222.50;5020772;28;20152;-69
2022/03/17 09:44:32;;;;;;;22.37;4.17;;;;;;;15.77;53.29;101208.16;5026106;28;20137;-69
2022/03/17 09:47:00;;;;;;;32.43;5.10;;;;;;;15.91;52.89;101220.38;5028956;28;20059;-69
2022/03/17 09:49:28;;;;;;;16.23;4.50;;;;;;;15.98;52.84;101228.47;5027615;28;20045;-70
2022/03/17 09:51:58;;;;;;;21.20;4.80;;;;;;;16.03;52.83;101228.41;5020665;28;20136;-70
2022/03/17 09:54:25;;;;;;;28.20;4.82;;;;;;;15.98;52.83;101214.38;5017028;28;20054;-69
2022/03/17 09:56:52;;;;;;;16.85;5.03;;;;;;;16.04;52.62;101216.00;5025379;28;20144;-68
2022/03/17 09:59:18;;;;;;;18.25;4.82;;;;;;;16.10;52.34;101217.59;5022071;28;20128;-68
2022/03/17 10:01:46;;;;;;;24.23;5.07;;;;;;;16.16;52.27;101205.13;5022902;28;20215;-68
2022/03/17 10:04:13;;;;;;;25.88;5.72;;;;;;;16.37;52.37;101233.03;5021220;28;20143;-68
2022/03/17 10:06:40;;;;;;;26.95;4.68;;;;;;;16.38;52.35;101229.91;5023638;28;20141;-68
2022/03/17 10:09:07;;;;;;;25.17;5.63;;;;;;;16.55;52.35;101244.34;5025999;28;20133;-68
2022/03/17 10:11:37;;;;;;;21.45;4.78;;;;;;;16.57;52.02;101241.19;5022259;28;20491;-68
2022/03/17 10:14:06;;;;;;;29.42;5.05;;;;;;;16.51;52.15;101205.75;5020411;28;20501;-68
2022/03/17 10:16:33;;;;;;;19.73;4.57;;;;;;;16.42;51.80;101180.25;5016527;28;20391;-69
2022/03/17 10:19:06;;;;;;;18.52;4.35;;;;;;;16.80;52.05;101237.50;5025733;28;20504;-69
2022/03/17 10:21:34;;;;;;;27.23;7.32;;;;;;;16.80;51.73;101231.84;5022474;28;20076;-69
2022/03/17 10:24:06;;;;;;;20.73;5.07;;;;;;;16.92;52.06;101237.03;5026784;28;20080;-69
2022/03/17 10:26:42;;;;;;;15.32;5.22;;;;;;;16.94;51.96;101229.09;5025412;28;20054;-69
2022/03/17 10:29:12;;;;;;;25.92;5.47;;;;;;;17.01;51.58;101242.81;5024683;28;20065;-69
2022/03/17 10:31:54;;;;;;;18.13;3.90;;;;;;;17.00;51.39;101235.50;5025105;28;20076;-68
2022/03/17 10:34:24;;;;;;;26.92;5.72;;;;;;;16.92;51.59;101199.50;5024658;28;20045;-68
2022/03/17 10:36:50;;;;;;;18.92;4.53;;;;;;;17.08;51.37;101217.84;5025054;28;20140;-68
2022/03/17 10:39:17;;;;;;;18.52;5.18;;;;;;;17.16;51.56;101217.16;5028879;28;20560;-68
2022/03/17 10:41:47;;;;;;;20.35;5.32;;;;;;;16.91;51.52;101169.63;5023736;28;20140;-68
2022/03/17 10:44:16;;;;;;;26.45;5.00;;;;;;;17.21;51.58;101208.59;5024011;28;20061;-68
2022/03/17 10:46:57;;;;;;;18.20;4.10;;;;;;;17.28;51.08;101223.16;5024294;28;20501;-69
2022/03/17 10:49:24;;;;;;;26.25;5.43;;;;;;;17.32;50.96;101214.91;5023626;28;20124;-68
2022/03/17 10:51:55;;;;;;;19.42;5.25;;;;;;;17.47;51.09;101223.09;5018324;28;20049;-69
2022/03/17 10:54:23;;;;;;;23.15;4.82;;;;;;;17.34;50.52;101212.63;5022820;28;20500;-69
2022/03/17 10:57:25;;;;;;;15.15;3.90;;;;;;;17.50;50.57;101236.59;5020284;28;20607;-68
2022/03/17 10:59:56;;;;;;;12.73;4.15;;;;;;;17.57;50.08;101233.34;4982603;28;20563;-68
2022/03/17 11:02:25;;;;;;;17.55;4.40;;;;;;;17.50;49.47;101215.97;5024127;28;20081;-69
2022/03/17 11:04:52;;;;;;;9.55;2.92;;;;;;;17.62;49.74;101238.91;5026109;28;20121;-68
2022/03/17 11:07:21;;;;;;;17.88;4.90;;;;;;;17.60;49.01;101212.13;5019967;28;20540;-69
2022/03/17 11:09:48;;;;;;;20.00;3.67;;;;;;;17.77;49.03;101227.34;5021367;28;20053;-69
2022/03/17 11:12:17;;;;;;;16.65;3.25;;;;;;;17.79;48.62;101212.06;5024791;28;20132;-69
2022/03/17 11:14:53;;;;;;;13.60;3.33;;;;;;;17.93;48.40;101232.69;5018962;28;20073;-67
2022/03/17 11:17:29;;;;;;;12.27;3.20;;;;;;;17.92;47.50;101233.84;5019307;28;20073;-68
2022/03/17 11:20:05;;;;;;;9.00;3.25;;;;;;;17.85;47.47;101233.44;5021925;28;20049;-68
2022/03/17 11:22:33;;;;;;;17.85;3.88;;;;;;;17.84;47.11;101197.84;5026509;28;20077;-68
2022/03/17 11:25:19;;;;;;;5.95;1.92;;;;;;;18.01;46.57;101229.13;5026284;28;20124;-69
2022/03/17 11:27:48;;;;;;;11.75;2.63;;;;;;;18.07;45.99;101227.88;5027668;28;20147;-69
2022/03/17 11:30:18;;;;;;;9.80;2.58;;;;;;;17.82;45.66;101203.81;5025957;28;20065;-69
2022/03/17 11:32:58;;;;;;;10.13;2.22;;;;;;;18.07;45.65;101227.88;5022911;28;20096;-69
2022/03/17 11:35:29;;;;;;;18.35;2.25;;;;;;;18.14;45.46;101233.94;5015349;28;20107;-69